Time;durP1;ratioP1;P1;durP2;ratioP2;P2;SDS_P1;SDS_P2;PMS_P1;PMS_P2;Temp;Humidity;BMP_temperature;BMP_pressure;BME280_temperature;BME280_humidity;BME280_pressure;Samples;Min_cycle;Max_cycle;Signal;HPM_P1;HPM_P2
2022/10/03 00:01:11;;;;;;;;;20.33;17.00;;;;;;;;5052599;28;46298;-68
2022/10/03 00:03:54;;;;;;;;;23.33;19.67;;;;;;;;5054217;28;45353;-68
2022/10/03 00:06:32;;;;;;;;;21.00;18.67;;;;;;;;5054813;28;45357;-67
2022/10/03 00:08:57;;;;;;;;;23.00;19.67;;;;;;;;5054698;28;45881;-67
2022/10/03 00:11:37;;;;;;;;;22.00;19.67;;;;;;;;5054284;28;47020;-67
2022/10/03 00:14:05;;;;;;;;;12.00;11.00;;;;;;;;5054451;28;45449;-67
2022/10/03 00:16:35;;;;;;;;;20.00;16.67;;;;;;;;5052068;28;45365;-68
2022/10/03 00:19:03;;;;;;;;;20.67;18.33;;;;;;;;5054467;28;45300;-67
2022/10/03 00:21:34;;;;;;;;;29.67;27.00;;;;;;;;5054439;28;45668;-67
2022/10/03 00:23:59;;;;;;;;;24.33;17.00;;;;;;;;5053583;28;45303;-67
2022/10/03 00:26:35;;;;;;;;;20.33;18.00;;;;;;;;5054317;28;45319;-66
2022/10/03 00:29:00;;;;;;;;;29.00;23.00;;;;;;;;5054297;28;45356;-67
2022/10/03 00:31:45;;;;;;;;;20.67;17.33;;;;;;;;5054171;28;46370;-67
2022/10/03 00:34:13;;;;;;;;;15.33;13.67;;;;;;;;5052980;28;45427;-67
2022/10/03 00:36:54;;;;;;;;;16.00;16.00;;;;;;;;5054496;28;45454;-67
2022/10/03 00:39:34;;;;;;;;;18.33;16.00;;;;;;;;5056424;28;46806;-67
2022/10/03 00:42:06;;;;;;;;;16.00;16.00;;;;;;;;5069430;28;46347;-67
2022/10/03 00:44:54;;;;;;;;;19.33;17.00;;;;;;;;5036160;28;45348;-67
2022/10/03 00:47:25;;;;;;;;;17.33;14.33;;;;;;;;5013983;28;45474;-67
2022/10/03 00:50:08;;;;;;;;;23.00;17.00;;;;;;;;5014053;28;45430;-67
2022/10/03 00:52:46;;;;;;;;;19.00;14.67;;;;;;;;5013761;28;46582;-67
2022/10/03 00:55:13;;;;;;;;;16.67;16.00;;;;;;;;5014884;28;45309;-67
2022/10/03 00:57:38;;;;;;;;;22.33;15.67;;;;;;;;5017583;28;45549;-67
2022/10/03 01:00:21;;;;;;;;;16.67;15.33;;;;;;;;5017603;28;45419;-67
2022/10/03 01:03:05;;;;;;;;;17.33;15.33;;;;;;;;5016779;28;45481;-67
2022/10/03 01:05:30;;;;;;;;;20.33;14.67;;;;;;;;5017574;28;45422;-67
2022/10/03 01:08:14;;;;;;;;;15.33;13.33;;;;;;;;5029036;28;45398;-67
2022/10/03 01:10:55;;;;;;;;;21.33;19.00;;;;;;;;5037523;28;45269;-67
2022/10/03 01:13:23;;;;;;;;;21.67;20.00;;;;;;;;5036785;28;46627;-67
2022/10/03 01:15:49;;;;;;;;;20.00;17.67;;;;;;;;5037226;28;45267;-67
2022/10/03 01:18:32;;;;;;;;;27.00;19.00;;;;;;;;5036994;28;45358;-67
2022/10/03 01:21:16;;;;;;;;;19.33;18.00;;;;;;;;5037448;28;45423;-67
2022/10/03 01:23:59;;;;;;;;;15.33;13.67;;;;;;;;5041716;28;45356;-67
2022/10/03 01:26:42;;;;;;;;;17.00;15.67;;;;;;;;5058211;28;45501;-67
2022/10/03 01:32:11;;;;;;;;;21.33;18.00;;;;;;;;5059346;28;45359;-68
2022/10/03 01:34:55;;;;;;;;;19.33;15.67;;;;;;;;5058900;28;46551;-68
2022/10/03 01:37:38;;;;;;;;;21.33;19.00;;;;;;;;5058984;28;45216;-68
2022/10/03 01:40:15;;;;;;;;;20.67;17.67;;;;;;;;5058189;28;45229;-68
2022/10/03 01:42:51;;;;;;;;;19.33;19.00;;;;;;;;5059587;28;45684;-68
2022/10/03 01:45:36;;;;;;;;;20.00;18.00;;;;;;;;5058807;28;46342;-68
2022/10/03 01:48:05;;;;;;;;;22.33;17.00;;;;;;;;5058685;28;45423;-68
2022/10/03 01:50:45;;;;;;;;;27.00;21.00;;;;;;;;5058847;28;45414;-68
2022/10/03 01:53:14;;;;;;;;;23.33;22.33;;;;;;;;5059186;28;45311;-67
2022/10/03 01:55:40;;;;;;;;;23.00;20.00;;;;;;;;5058906;28;46685;-67
2022/10/03 01:58:13;;;;;;;;;23.33;21.67;;;;;;;;5057653;28;45245;-68
2022/10/03 02:00:46;;;;;;;;;25.67;21.00;;;;;;;;5058752;28;45331;-67
2022/10/03 02:03:34;;;;;;;;;22.67;21.00;;;;;;;;5058697;28;45353;-68
2022/10/03 02:06:05;;;;;;;;;20.00;14.67;;;;;;;;5052546;28;45611;-68
2022/10/03 02:08:30;;;;;;;;;21.00;20.67;;;;;;;;5057956;28;45243;-67
2022/10/03 02:11:07;;;;;;;;;20.67;18.67;;;;;;;;5058687;28;45695;-67
2022/10/03 02:13:51;;;;;;;;;25.67;20.00;;;;;;;;5057316;28;45479;-68
2022/10/03 02:16:23;;;;;;;;;23.67;20.33;;;;;;;;5058390;28;47526;-67
2022/10/03 02:18:49;;;;;;;;;17.00;13.67;;;;;;;;5058285;28;45344;-67
2022/10/03 02:21:28;;;;;;;;;20.67;18.33;;;;;;;;5058399;28;45414;-68
2022/10/03 02:24:12;;;;;;;;;25.33;22.67;;;;;;;;5058504;28;45351;-67
2022/10/03 02:26:44;;;;;;;;;28.00;23.33;;;;;;;;5058273;28;46158;-68
2022/10/03 02:29:27;;;;;;;;;18.67;17.00;;;;;;;;5058307;28;45309;-68
2022/10/03 02:31:58;;;;;;;;;21.33;18.00;;;;;;;;5057240;28;45435;-67
2022/10/03 02:34:30;;;;;;;;;20.00;18.33;;;;;;;;5058131;28;45392;-67
2022/10/03 02:37:08;;;;;;;;;22.67;20.33;;;;;;;;5058352;28;45430;-67
2022/10/03 02:39:33;;;;;;;;;27.00;23.00;;;;;;;;5058371;28;45523;-68
2022/10/03 02:42:17;;;;;;;;;30.67;25.67;;;;;;;;5058130;28;45489;-68
2022/10/03 02:44:44;;;;;;;;;28.33;24.00;;;;;;;;5058160;28;45399;-67
2022/10/03 02:47:16;;;;;;;;;30.33;25.67;;;;;;;;5058084;28;46651;-67
2022/10/03 02:49:59;;;;;;;;;29.67;25.00;;;;;;;;5056801;28;45268;-68
2022/10/03 02:52:31;;;;;;;;;25.33;19.33;;;;;;;;5058169;28;45451;-67
2022/10/03 02:55:05;;;;;;;;;19.00;19.00;;;;;;;;5058003;28;45438;-67
2022/10/03 02:57:37;;;;;;;;;18.67;16.67;;;;;;;;5057736;28;46503;-68
2022/10/03 03:00:19;;;;;;;;;21.67;19.67;;;;;;;;5057792;28;45442;-67
2022/10/03 03:03:03;;;;;;;;;17.33;14.67;;;;;;;;5057879;28;45216;-68
2022/10/03 03:05:35;;;;;;;;;24.00;20.33;;;;;;;;5056903;28;45299;-67
2022/10/03 03:08:12;;;;;;;;;22.33;19.00;;;;;;;;5057493;28;46566;-68
2022/10/03 03:10:56;;;;;;;;;20.00;19.00;;;;;;;;5057420;28;45403;-68
2022/10/03 03:13:36;;;;;;;;;18.33;15.33;;;;;;;;5057971;28;45412;-68
2022/10/03 03:16:20;;;;;;;;;18.00;14.67;;;;;;;;5058093;28;45530;-68
2022/10/03 03:18:54;;;;;;;;;17.67;17.00;;;;;;;;5056372;28;45258;-68
2022/10/03 03:21:25;;;;;;;;;19.33;17.00;;;;;;;;5057375;28;45521;-67
2022/10/03 03:24:00;;;;;;;;;15.33;15.00;;;;;;;;5056421;28;45474;-67
2022/10/03 03:26:33;;;;;;;;;20.67;17.00;;;;;;;;5057554;28;45403;-67
2022/10/03 03:29:09;;;;;;;;;16.67;15.00;;;;;;;;5057591;28;45523;-67
2022/10/03 03:31:53;;;;;;;;;19.33;15.67;;;;;;;;5069627;28;45351;-68
2022/10/03 03:34:30;;;;;;;;;14.33;13.67;;;;;;;;5071481;28;45458;-68
2022/10/03 03:36:59;;;;;;;;;22.00;16.33;;;;;;;;5077718;27;45518;-67
2022/10/03 03:39:32;;;;;;;;;19.67;13.67;;;;;;;;5077478;27;47477;-67
2022/10/03 03:42:16;;;;;;;;;16.00;16.00;;;;;;;;5056950;28;45482;-67
2022/10/03 03:44:53;;;;;;;;;19.00;14.00;;;;;;;;5057372;28;45424;-67
2022/10/03 03:47:18;;;;;;;;;14.67;13.33;;;;;;;;5057395;28;45178;-67
2022/10/03 03:50:22;;;;;;;;;17.67;13.00;;;;;;;;5057014;28;46121;-67
2022/10/03 03:53:10;;;;;;;;;14.33;13.67;;;;;;;;5034778;28;45559;-67
2022/10/03 03:55:47;;;;;;;;;15.33;15.00;;;;;;;;5026692;28;45389;-67
2022/10/03 03:58:15;;;;;;;;;17.00;13.33;;;;;;;;5033355;28;45467;-67
2022/10/03 04:00:55;;;;;;;;;13.00;13.00;;;;;;;;5034632;28;45496;-67
2022/10/03 04:03:26;;;;;;;;;16.67;13.67;;;;;;;;5034634;28;45305;-67
2022/10/03 04:06:12;;;;;;;;;20.67;16.67;;;;;;;;5034360;28;45323;-68
2022/10/03 04:08:45;;;;;;;;;18.33;17.00;;;;;;;;4975195;28;45561;-68
2022/10/03 04:11:11;;;;;;;;;16.00;16.00;;;;;;;;4975276;28;46455;-68
2022/10/03 04:13:59;;;;;;;;;18.00;14.33;;;;;;;;4973543;28;46209;-67
2022/10/03 04:18:56;;;;;;;;;17.00;15.33;;;;;;;;4911687;28;45819;-67
2022/10/03 04:19:12;;;;;;;;;13.33;11.33;;;;;;;;4898253;28;45874;-67
2022/10/03 04:21:50;;;;;;;;;14.67;12.33;;;;;;;;4898084;29;45689;-67
2022/10/03 04:24:35;;;;;;;;;14.00;11.67;;;;;;;;4928282;28;45313;-67
2022/10/03 04:27:18;;;;;;;;;22.33;15.67;;;;;;;;4936232;28;45549;-67
2022/10/03 04:30:00;;;;;;;;;10.00;9.67;;;;;;;;4936559;28;45501;-67
2022/10/03 04:32:40;;;;;;;;;14.33;11.00;;;;;;;;4938287;28;45723;-67
2022/10/03 04:35:11;;;;;;;;;13.67;13.00;;;;;;;;4939046;28;45342;-68
2022/10/03 04:37:51;;;;;;;;;17.00;16.00;;;;;;;;4939732;28;45321;-67
2022/10/03 04:40:34;;;;;;;;;19.00;19.00;;;;;;;;4939762;28;45476;-67
2022/10/03 04:43:03;;;;;;;;;17.67;15.00;;;;;;;;4939286;28;45935;-67
2022/10/03 04:45:28;;;;;;;;;13.33;10.00;;;;;;;;4953808;28;45357;-68
2022/10/03 04:48:15;;;;;;;;;18.33;17.00;;;;;;;;4977400;28;45462;-67
2022/10/03 04:50:46;;;;;;;;;17.33;15.33;;;;;;;;4978224;28;45501;-68
2022/10/03 04:53:20;;;;;;;;;16.33;13.00;;;;;;;;5009834;28;46400;-67
2022/10/03 04:55:55;;;;;;;;;19.00;16.00;;;;;;;;5059307;28;45438;-67
2022/10/03 04:58:29;;;;;;;;;18.33;14.33;;;;;;;;5059408;28;45423;-67
2022/10/03 05:00:54;;;;;;;;;17.67;15.67;;;;;;;;5059969;28;45404;-67
2022/10/03 05:03:40;;;;;;;;;19.33;14.67;;;;;;;;5059562;28;45496;-67
2022/10/03 05:06:18;;;;;;;;;14.67;13.33;;;;;;;;5058641;28;45323;-68
2022/10/03 05:08:48;;;;;;;;;47.50;41.00;;;;;;;;5059484;28;45324;-67
2022/10/03 05:11:27;;;;;;;;;19.67;17.00;;;;;;;;5059764;28;45308;-67
2022/10/03 05:13:58;;;;;;;;;19.00;18.33;;;;;;;;5059270;28;46311;-67
2022/10/03 05:16:35;;;;;;;;;17.33;14.67;;;;;;;;5059664;28;45482;-67
2022/10/03 05:19:18;;;;;;;;;26.33;23.33;;;;;;;;5059202;28;45483;-67
2022/10/03 05:21:47;;;;;;;;;16.67;15.33;;;;;;;;5058986;28;45778;-67
2022/10/03 05:24:18;;;;;;;;;14.33;14.33;;;;;;;;5057301;28;46574;-67
2022/10/03 05:26:49;;;;;;;;;19.33;15.00;;;;;;;;5059233;28;45585;-67
2022/10/03 05:29:19;;;;;;;;;21.33;14.33;;;;;;;;5059462;28;45662;-67
2022/10/03 05:31:53;;;;;;;;;17.33;14.33;;;;;;;;5059350;28;45486;-67
2022/10/03 05:34:21;;;;;;;;;14.33;14.33;;;;;;;;5058976;28;47189;-66
2022/10/03 05:36:56;;;;;;;;;22.00;16.00;;;;;;;;5058861;28;45328;-67
2022/10/03 05:39:28;;;;;;;;;18.33;14.00;;;;;;;;5057594;28;45371;-68
2022/10/03 05:42:14;;;;;;;;;18.00;17.00;;;;;;;;5058044;28;45370;-67
2022/10/03 05:44:42;;;;;;;;;14.00;14.00;;;;;;;;5058468;28;46155;-68
2022/10/03 05:47:43;;;;;;;;;19.33;17.67;;;;;;;;5058816;28;45363;-67
2022/10/03 05:50:13;;;;;;;;;20.33;16.33;;;;;;;;5058659;28;45304;-67
2022/10/03 05:52:51;;;;;;;;;14.67;14.00;;;;;;;;5058927;28;45489;-67
2022/10/03 05:55:19;;;;;;;;;16.00;15.00;;;;;;;;5058812;28;45338;-67
2022/10/03 05:57:51;;;;;;;;;16.00;14.00;;;;;;;;5057489;28;45401;-67
2022/10/03 06:00:21;;;;;;;;;17.00;16.00;;;;;;;;5058307;28;45561;-67
2022/10/03 06:03:05;;;;;;;;;19.33;16.00;;;;;;;;5058711;28;45427;-67
2022/10/03 06:05:35;;;;;;;;;25.00;21.00;;;;;;;;5058394;28;46257;-67
2022/10/03 06:08:19;;;;;;;;;18.33;13.33;;;;;;;;5038150;28;45312;-67
2022/10/03 06:11:03;;;;;;;;;26.00;21.00;;;;;;;;5038220;28;45433;-67
2022/10/03 06:13:35;;;;;;;;;21.67;17.00;;;;;;;;5056081;28;45368;-67
2022/10/03 06:16:00;;;;;;;;;20.67;20.67;;;;;;;;5037396;28;46690;-67
2022/10/03 06:18:25;;;;;;;;;27.33;26.00;;;;;;;;5037764;28;45326;-67
2022/10/03 06:20:53;;;;;;;;;45.67;37.00;;;;;;;;5038085;28;45459;-66
2022/10/03 06:23:37;;;;;;;;;36.33;30.00;;;;;;;;5036678;28;45583;-66
2022/10/03 06:26:14;;;;;;;;;32.33;26.67;;;;;;;;5037259;28;46072;-66
2022/10/03 06:28:40;;;;;;;;;31.67;27.67;;;;;;;;5037718;28;45380;-66
2022/10/03 06:31:28;;;;;;;;;35.33;24.33;;;;;;;;5052925;28;45480;-66
2022/10/03 06:34:12;;;;;;;;;36.33;31.00;;;;;;;;5058200;28;45344;-66
2022/10/03 06:36:54;;;;;;;;;22.67;22.00;;;;;;;;5057405;28;46090;-66
2022/10/03 06:39:19;;;;;;;;;26.33;25.00;;;;;;;;5057728;28;45221;-66
2022/10/03 06:41:44;;;;;;;;;23.67;21.67;;;;;;;;5010312;27;45505;-66
2022/10/03 06:44:18;;;;;;;;;30.67;22.33;;;;;;;;4998475;28;45243;-66
2022/10/03 06:47:02;;;;;;;;;22.33;18.00;;;;;;;;5003996;28;46353;-66
2022/10/03 06:49:46;;;;;;;;;24.33;19.00;;;;;;;;5016390;28;45422;-66
2022/10/03 06:52:32;;;;;;;;;18.33;17.00;;;;;;;;5017559;28;45333;-66
2022/10/03 06:55:02;;;;;;;;;29.00;23.33;;;;;;;;5009510;28;45524;-68
2022/10/03 06:57:48;;;;;;;;;25.33;21.33;;;;;;;;5003851;28;45460;-67
2022/10/03 07:00:18;;;;;;;;;20.67;18.00;;;;;;;;5000535;28;45457;-66
2022/10/03 07:02:52;;;;;;;;;20.00;17.33;;;;;;;;5017437;28;45314;-66
2022/10/03 07:05:36;;;;;;;;;19.33;19.33;;;;;;;;5012079;28;45501;-66
2022/10/03 07:08:04;;;;;;;;;18.00;14.33;;;;;;;;5015310;28;46644;-68
2022/10/03 07:10:40;;;;;;;;;19.67;12.33;;;;;;;;5015076;28;45341;-68
2022/10/03 07:13:25;;;;;;;;;21.67;20.00;;;;;;;;5004508;28;45559;-69
2022/10/03 07:16:07;;;;;;;;;18.67;16.00;;;;;;;;5012654;28;45490;-70
2022/10/03 07:18:44;;;;;;;;;24.67;21.67;;;;;;;;5011186;28;46596;-69
2022/10/03 07:21:19;;;;;;;;;27.00;25.00;;;;;;;;5013175;28;45745;-68
2022/10/03 07:23:56;;;;;;;;;22.67;20.00;;;;;;;;4998105;28;45471;-68
2022/10/03 07:26:39;;;;;;;;;47.00;39.00;;;;;;;;5006773;28;45582;-68
2022/10/03 07:29:07;;;;;;;;;26.00;25.33;;;;;;;;4998986;28;45435;-68
2022/10/03 07:31:33;;;;;;;;;20.00;15.00;;;;;;;;5003046;28;45385;-68
2022/10/03 07:34:12;;;;;;;;;16.33;16.00;;;;;;;;4997148;28;45489;-68
2022/10/03 07:39:24;;;;;;;;;23.67;22.00;;;;;;;;4996157;28;45876;-68
2022/10/03 07:42:07;;;;;;;;;19.67;18.00;;;;;;;;5006714;28;45421;-66
2022/10/03 07:44:51;;;;;;;;;19.00;16.00;;;;;;;;5015979;28;45480;-66
2022/10/03 07:47:25;;;;;;;;;21.33;17.67;;;;;;;;5016007;28;45449;-66
2022/10/03 07:50:23;;;;;;;;;24.00;22.00;;;;;;;;5015671;28;45425;-66
2022/10/03 07:52:51;;;;;;;;;25.67;21.00;;;;;;;;5013506;28;45350;-66
2022/10/03 07:55:28;;;;;;;;;20.33;19.67;;;;;;;;5013510;28;45469;-66
2022/10/03 07:57:59;;;;;;;;;18.00;15.33;;;;;;;;5014250;28;45589;-66
2022/10/03 08:00:39;;;;;;;;;18.67;15.67;;;;;;;;5012193;28;46247;-66
2022/10/03 08:03:07;;;;;;;;;23.33;19.00;;;;;;;;5013841;28;45520;-66
2022/10/03 08:05:36;;;;;;;;;18.00;14.00;;;;;;;;5014923;28;45481;-65
2022/10/03 08:08:12;;;;;;;;;23.33;18.00;;;;;;;;5017451;28;45794;-67
2022/10/03 08:10:37;;;;;;;;;18.00;18.00;;;;;;;;5017424;28;46630;-66
2022/10/03 08:13:05;;;;;;;;;26.33;20.00;;;;;;;;5017361;28;45382;-66
2022/10/03 08:15:39;;;;;;;;;25.33;22.33;;;;;;;;5016293;28;45552;-65
2022/10/03 08:18:21;;;;;;;;;28.67;26.33;;;;;;;;5017299;28;45390;-65
2022/10/03 08:21:05;;;;;;;;;20.33;17.67;;;;;;;;5016964;28;46423;-65
2022/10/03 08:23:40;;;;;;;;;59.67;46.67;;;;;;;;5017154;28;45319;-65
2022/10/03 08:26:16;;;;;;;;;21.00;17.33;;;;;;;;5016506;28;45473;-66
2022/10/03 08:29:00;;;;;;;;;20.67;16.33;;;;;;;;5018556;28;45246;-65
2022/10/03 08:31:31;;;;;;;;;25.00;20.33;;;;;;;;5017637;28;46299;-65
2022/10/03 08:34:15;;;;;;;;;15.00;15.00;;;;;;;;5005500;28;45877;-66
2022/10/03 08:36:52;;;;;;;;;15.67;14.67;;;;;;;;5008412;28;45369;-66
2022/10/03 08:39:40;;;;;;;;;16.00;14.00;;;;;;;;5005752;28;45436;-65
2022/10/03 08:42:08;;;;;;;;;19.67;18.33;;;;;;;;4996612;28;46186;-66
2022/10/03 08:44:34;;;;;;;;;16.33;14.00;;;;;;;;4996964;28;45555;-66
2022/10/03 08:47:08;;;;;;;;;14.00;13.67;;;;;;;;4995656;28;45893;-66
2022/10/03 08:49:45;;;;;;;;;16.67;12.33;;;;;;;;4992175;28;45467;-65
2022/10/03 08:52:30;;;;;;;;;18.33;15.00;;;;;;;;4996483;28;45730;-65
2022/10/03 08:55:21;;;;;;;;;17.00;16.00;;;;;;;;4981490;28;45397;-65
2022/10/03 08:57:47;;;;;;;;;23.67;19.33;;;;;;;;4975752;28;45586;-65
2022/10/03 09:00:18;;;;;;;;;23.00;18.00;;;;;;;;4977975;28;45370;-65
2022/10/03 09:02:55;;;;;;;;;27.00;25.33;;;;;;;;4977623;28;46727;-65
2022/10/03 09:05:39;;;;;;;;;31.00;28.67;;;;;;;;4992407;28;45289;-65
2022/10/03 09:08:22;;;;;;;;;22.00;17.33;;;;;;;;4997229;28;45413;-66
2022/10/03 09:11:06;;;;;;;;;21.00;18.67;;;;;;;;4997570;28;45515;-65
2022/10/03 09:13:50;;;;;;;;;26.00;24.67;;;;;;;;4995896;28;46487;-66
2022/10/03 09:16:21;;;;;;;;;24.67;19.67;;;;;;;;4997035;28;45397;-66
2022/10/03 09:18:50;;;;;;;;;21.00;17.33;;;;;;;;5005326;28;45387;-65
2022/10/03 09:21:25;;;;;;;;;15.00;12.33;;;;;;;;5019603;28;45734;-65
2022/10/03 09:23:59;;;;;;;;;17.33;15.00;;;;;;;;5018759;28;46418;-65
2022/10/03 09:26:30;;;;;;;;;23.67;22.33;;;;;;;;5018720;28;45532;-65
2022/10/03 09:29:05;;;;;;;;;22.33;17.00;;;;;;;;5018170;28;45564;-65
2022/10/03 09:31:45;;;;;;;;;21.33;21.33;;;;;;;;5019346;28;45346;-65
2022/10/03 09:34:13;;;;;;;;;21.00;17.67;;;;;;;;5018887;28;45342;-65
2022/10/03 09:36:38;;;;;;;;;15.33;13.33;;;;;;;;5010171;28;45458;-65
2022/10/03 09:39:04;;;;;;;;;16.67;11.33;;;;;;;;4999280;28;45427;-66
2022/10/03 09:41:30;;;;;;;;;19.00;13.67;;;;;;;;4999218;28;45291;-66
2022/10/03 09:44:13;;;;;;;;;19.67;15.67;;;;;;;;4998669;28;45408;-67
2022/10/03 09:49:59;;;;;;;;;18.33;16.67;;;;;;;;5018766;28;45263;-66
2022/10/03 09:52:37;;;;;;;;;13.33;13.33;;;;;;;;5019017;28;45388;-66
2022/10/03 09:55:14;;;;;;;;;24.67;21.33;;;;;;;;5018406;28;46518;-67
2022/10/03 09:57:53;;;;;;;;;17.67;15.33;;;;;;;;5018488;28;45536;-67
2022/10/03 10:00:20;;;;;;;;;15.00;14.00;;;;;;;;5017541;28;45393;-66
2022/10/03 10:02:55;;;;;;;;;18.67;17.33;;;;;;;;5017403;28;45675;-66
2022/10/03 10:05:20;;;;;;;;;23.33;16.67;;;;;;;;5017289;28;46559;-66
2022/10/03 10:08:10;;;;;;;;;20.33;19.33;;;;;;;;5018187;28;45439;-66
2022/10/03 10:10:51;;;;;;;;;21.67;19.33;;;;;;;;5018497;28;45527;-66
2022/10/03 10:13:35;;;;;;;;;20.00;18.00;;;;;;;;5018476;28;45546;-66
2022/10/03 10:16:08;;;;;;;;;15.33;14.00;;;;;;;;5016110;28;45459;-66
2022/10/03 10:18:46;;;;;;;;;15.00;14.33;;;;;;;;5017122;28;45445;-66
2022/10/03 10:21:30;;;;;;;;;16.00;15.00;;;;;;;;5015778;28;45467;-66
2022/10/03 10:24:14;;;;;;;;;22.67;18.33;;;;;;;;5018309;28;45426;-67
2022/10/03 10:26:40;;;;;;;;;18.67;15.00;;;;;;;;5016682;28;46172;-66
2022/10/03 10:29:13;;;;;;;;;18.33;18.33;;;;;;;;5017361;28;45405;-65
2022/10/03 10:31:38;;;;;;;;;17.00;12.33;;;;;;;;5018070;28;45397;-66
2022/10/03 10:34:21;;;;;;;;;9.00;7.00;;;;;;;;5018551;28;45514;-65
2022/10/03 10:37:05;;;;;;;;;9.33;8.00;;;;;;;;5018114;28;46449;-65
2022/10/03 10:39:39;;;;;;;;;7.33;4.33;;;;;;;;5017876;28;45386;-66
2022/10/03 10:42:23;;;;;;;;;9.75;5.25;;;;;;;;5017131;28;45625;-67
2022/10/03 10:45:07;;;;;;;;;5.00;4.75;;;;;;;;5016638;28;45455;-67
2022/10/03 10:47:47;;;;;;;;;7.00;6.00;;;;;;;;5017257;28;46717;-67
2022/10/03 10:50:22;;;;;;;;;4.00;4.00;;;;;;;;5016717;28;45275;-67
2022/10/03 10:53:07;;;;;;;;;11.33;6.33;;;;;;;;5017567;28;45311;-67
2022/10/03 10:55:32;;;;;;;;;5.00;5.00;;;;;;;;5016988;28;45430;-67
2022/10/03 10:58:15;;;;;;;;;5.00;5.00;;;;;;;;5017618;28;46457;-67
2022/10/03 11:00:40;;;;;;;;;7.00;5.00;;;;;;;;5016471;28;45313;-67
2022/10/03 11:03:18;;;;;;;;;5.50;3.75;;;;;;;;5017199;28;45163;-66
2022/10/03 11:05:46;;;;;;;;;5.75;4.50;;;;;;;;5017483;28;45242;-66
2022/10/03 11:08:17;;;;;;;;;3.75;2.00;;;;;;;;5017188;28;46996;-66
2022/10/03 11:11:00;;;;;;;;;6.25;3.25;;;;;;;;5008126;28;45218;-66
2022/10/03 11:13:44;;;;;;;;;5.00;3.50;;;;;;;;4997987;28;45278;-66
2022/10/03 11:16:15;;;;;;;;;3.00;2.00;;;;;;;;4998076;28;45211;-67
2022/10/03 11:18:40;;;;;;;;;2.00;0.00;;;;;;;;4997980;28;45539;-67
2022/10/03 11:21:24;;;;;;;;;4.25;2.75;;;;;;;;4997727;28;45301;-66
2022/10/03 11:24:01;;;;;;;;;3.00;3.00;;;;;;;;4998045;28;45381;-67
2022/10/03 11:26:49;;;;;;;;;5.25;3.00;;;;;;;;4997833;28;45531;-66
2022/10/03 11:29:24;;;;;;;;;5.25;3.75;;;;;;;;4997447;28;45452;-67
2022/10/03 11:32:08;;;;;;;;;4.00;4.00;;;;;;;;4997699;28;45328;-67
2022/10/03 11:34:36;;;;;;;;;4.00;4.00;;;;;;;;4997915;28;45244;-67
2022/10/03 11:37:04;;;;;;;;;3.50;3.50;;;;;;;;4998001;28;45421;-67
2022/10/03 11:39:48;;;;;;;;;3.00;3.00;;;;;;;;4996934;28;45401;-67
2022/10/03 11:42:22;;;;;;;;;3.00;3.00;;;;;;;;4997465;28;45204;-67
2022/10/03 11:44:47;;;;;;;;;8.50;6.00;;;;;;;;4997638;28;45305;-67
2022/10/03 11:47:28;;;;;;;;;9.25;5.75;;;;;;;;4997834;28;45346;-68
2022/10/03 11:50:05;;;;;;;;;7.67;6.00;;;;;;;;4997381;28;47424;-66
2022/10/03 11:52:30;;;;;;;;;8.50;6.75;;;;;;;;4997461;28;45318;-67
2022/10/03 11:55:01;;;;;;;;;5.00;5.00;;;;;;;;4997523;28;45381;-67
2022/10/03 11:57:29;;;;;;;;;7.75;6.00;;;;;;;;4997781;28;45392;-67
2022/10/03 12:00:03;;;;;;;;;4.00;4.00;;;;;;;;4997327;28;46423;-67
2022/10/03 12:02:47;;;;;;;;;4.50;3.25;;;;;;;;4997278;28;45324;-67
2022/10/03 12:05:12;;;;;;;;;4.50;4.50;;;;;;;;4997444;28;46127;-67
2022/10/03 12:10:45;;;;;;;;;7.50;4.00;;;;;;;;4996918;28;45495;-67
2022/10/03 12:13:21;;;;;;;;;3.25;3.25;;;;;;;;4997295;28;45497;-67
2022/10/03 12:15:49;;;;;;;;;20.67;16.67;;;;;;;;4997479;28;45400;-67
2022/10/03 12:18:17;;;;;;;;;7.00;5.00;;;;;;;;4997405;28;45268;-67
2022/10/03 12:20:54;;;;;;;;;5.25;3.75;;;;;;;;4997026;28;46189;-67
2022/10/03 12:23:31;;;;;;;;;5.75;4.00;;;;;;;;4997284;28;45230;-68
2022/10/03 12:26:01;;;;;;;;;8.50;4.00;;;;;;;;4996869;28;45525;-68
2022/10/03 12:28:43;;;;;;;;;9.00;4.00;;;;;;;;4997254;28;45343;-66
2022/10/03 12:31:11;;;;;;;;;7.25;5.00;;;;;;;;4996856;28;46899;-67
2022/10/03 12:33:55;;;;;;;;;6.00;3.50;;;;;;;;4997328;28;45448;-67
2022/10/03 12:36:26;;;;;;;;;9.00;3.00;;;;;;;;4997218;28;45393;-67
2022/10/03 12:38:51;;;;;;;;;6.00;4.25;;;;;;;;4997200;28;45400;-67
2022/10/03 12:41:17;;;;;;;;;3.50;3.50;;;;;;;;4996665;28;46544;-67
2022/10/03 12:44:04;;;;;;;;;2.75;2.25;;;;;;;;4996994;28;45266;-67
2022/10/03 12:46:32;;;;;;;;;6.75;3.50;;;;;;;;4996991;28;45492;-66
2022/10/03 12:49:04;;;;;;;;;3.00;2.25;;;;;;;;4997163;28;45352;-66
2022/10/03 12:51:47;;;;;;;;;4.50;4.00;;;;;;;;4997625;28;45417;-66
2022/10/03 12:54:21;;;;;;;;;7.00;4.00;;;;;;;;5000130;28;45265;-66
2022/10/03 12:57:00;;;;;;;;;5.00;2.50;;;;;;;;5000243;28;45478;-67
2022/10/03 13:00:01;;;;;;;;;4.00;2.50;;;;;;;;5000391;28;45383;-66
2022/10/03 13:02:34;;;;;;;;;4.50;1.00;;;;;;;;4997763;28;46711;-67
2022/10/03 13:04:59;;;;;;;;;1.00;1.00;;;;;;;;4997634;28;45304;-66
2022/10/03 13:07:37;;;;;;;;;5.25;3.00;;;;;;;;4998014;28;45410;-67
2022/10/03 13:10:24;;;;;;;;;3.50;2.00;;;;;;;;4997684;28;45699;-67
2022/10/03 13:13:14;;;;;;;;;1.00;1.00;;;;;;;;4988243;28;46327;-67
2022/10/03 13:15:39;;;;;;;;;2.00;1.00;;;;;;;;4939153;28;45358;-66
2022/10/03 13:18:19;;;;;;;;;2.00;2.00;;;;;;;;4939195;28;45297;-67
2022/10/03 13:20:53;;;;;;;;;3.00;1.25;;;;;;;;4939273;28;45328;-68
2022/10/03 13:23:22;;;;;;;;;2.00;2.00;;;;;;;;4939059;28;46132;-67
2022/10/03 13:26:11;;;;;;;;;2.00;2.00;;;;;;;;4938704;28;45518;-67
2022/10/03 13:28:47;;;;;;;;;5.00;3.00;;;;;;;;4920065;28;45301;-67
2022/10/03 13:31:24;;;;;;;;;4.50;1.00;;;;;;;;4920027;28;45287;-67
2022/10/03 13:33:54;;;;;;;;;5.00;3.25;;;;;;;;4919507;28;47133;-67
2022/10/03 13:36:39;;;;;;;;;3.00;2.75;;;;;;;;4919682;28;45481;-67
2022/10/03 13:39:10;;;;;;;;;3.00;1.50;;;;;;;;4919612;28;45402;-67
2022/10/03 13:41:54;;;;;;;;;3.75;2.00;;;;;;;;4919606;28;45422;-67
2022/10/03 13:44:34;;;;;;;;;4.00;2.00;;;;;;;;4919286;28;45803;-67
2022/10/03 13:46:59;;;;;;;;;2.00;2.00;;;;;;;;4919430;28;45471;-67
2022/10/03 13:49:32;;;;;;;;;2.00;2.00;;;;;;;;4919636;28;45488;-67
2022/10/03 13:52:01;;;;;;;;;3.25;3.00;;;;;;;;4931889;28;45550;-67
2022/10/03 13:54:44;;;;;;;;;2.75;2.00;;;;;;;;4977400;28;46208;-67
2022/10/03 13:57:15;;;;;;;;;5.00;3.00;;;;;;;;4977307;28;45409;-67
2022/10/03 13:59:47;;;;;;;;;4.00;4.00;;;;;;;;4977358;28;45457;-66
2022/10/03 14:02:26;;;;;;;;;4.00;4.00;;;;;;;;4977530;28;45251;-66
2022/10/03 14:04:57;;;;;;;;;4.75;4.00;;;;;;;;4980495;28;46815;-66
2022/10/03 14:07:23;;;;;;;;;4.00;4.00;;;;;;;;4998990;28;45469;-66
2022/10/03 14:09:48;;;;;;;;;6.50;4.75;;;;;;;;4999147;28;45338;-66
2022/10/03 14:12:23;;;;;;;;;2.00;2.00;;;;;;;;4999137;28;45461;-67
2022/10/03 14:15:07;;;;;;;;;3.75;3.00;;;;;;;;4998889;28;46517;-67
2022/10/03 14:17:49;;;;;;;;;4.50;3.50;;;;;;;;4998782;28;45319;-67
2022/10/03 14:20:23;;;;;;;;;6.67;6.67;;;;;;;;4998921;28;45235;-67
2022/10/03 14:22:55;;;;;;;;;4.50;4.50;;;;;;;;4999259;28;45329;-65
2022/10/03 14:25:36;;;;;;;;;3.75;3.75;;;;;;;;4998259;28;45562;-67
2022/10/03 14:28:11;;;;;;;;;4.75;4.75;;;;;;;;4998574;28;45280;-66
2022/10/03 14:30:53;;;;;;;;;6.50;4.00;;;;;;;;4998788;28;45432;-67
2022/10/03 14:33:37;;;;;;;;;5.67;4.00;;;;;;;;4998949;28;45327;-66
2022/10/03 14:36:21;;;;;;;;;14.00;5.00;;;;;;;;4998664;28;45415;-66
2022/10/03 14:39:06;;;;;;;;;5.50;5.00;;;;;;;;4998412;28;45343;-66
2022/10/03 14:41:31;;;;;;;;;6.00;6.00;;;;;;;;4998680;28;45202;-66
2022/10/03 14:44:00;;;;;;;;;3.50;3.25;;;;;;;;4998725;28;45378;-66
2022/10/03 14:46:27;;;;;;;;;5.25;5.25;;;;;;;;4998196;28;47342;-66
2022/10/03 14:49:02;;;;;;;;;11.00;8.00;;;;;;;;4998383;28;45312;-66
2022/10/03 14:51:46;;;;;;;;;2.50;1.75;;;;;;;;4998192;28;45493;-66
2022/10/03 14:54:17;;;;;;;;;3.75;3.75;;;;;;;;4998479;28;45326;-66
2022/10/03 14:56:44;;;;;;;;;2.75;2.75;;;;;;;;4998012;28;45414;-66
2022/10/03 14:59:20;;;;;;;;;8.50;5.50;;;;;;;;4998295;28;45238;-66
2022/10/03 15:01:46;;;;;;;;;6.25;4.50;;;;;;;;4998243;28;45462;-66
2022/10/03 15:04:18;;;;;;;;;5.00;5.00;;;;;;;;4998114;28;45318;-66
2022/10/03 15:06:43;;;;;;;;;5.00;3.50;;;;;;;;4998043;28;45624;-66
2022/10/03 15:09:09;;;;;;;;;8.33;6.33;;;;;;;;4998150;28;45433;-67
2022/10/03 15:11:36;;;;;;;;;6.00;4.00;;;;;;;;4998058;28;45457;-66
2022/10/03 15:14:05;;;;;;;;;3.00;3.00;;;;;;;;4998322;28;45267;-66
2022/10/03 15:16:36;;;;;;;;;4.75;4.50;;;;;;;;4997781;28;47535;-66
2022/10/03 15:19:08;;;;;;;;;4.50;4.00;;;;;;;;4998011;28;45451;-66
2022/10/03 15:21:33;;;;;;;;;4.25;3.00;;;;;;;;4998141;28;45516;-66
2022/10/03 15:24:06;;;;;;;;;5.00;3.00;;;;;;;;4997960;28;45477;-66
2022/10/03 15:26:33;;;;;;;;;6.33;6.00;;;;;;;;4997394;28;46629;-66